Pagrindinis puslapis
METAR-TAF:

METAR-TAF

Oro uostai :

Tarptautinis Federico Fellini oro uostas

Riminis, Italija

platuma: 44-02N, ilguma: 012-37E, Aukštis: 12 m

Dabartinis oras

Ataskaita buvo paskelbta 36 minutes, ne 01:50 UTC
Vėjas 3 kt iš Pietų/Pietvakarių
Temperatūra 13°C
Drėgmė 88%
Slėgis 1010 hPa
Matomumas 10 km arba daugiau

METAR: LIPR 010150Z AUTO 20003KT 9999 FEW063/// 13/11 Q1010

Laikas: 04:26 (02:26 UTC)

Prognozė

Ataskaita buvo paskelbta 3 valandos ir 26 minutes, ne 23:00 UTC
Prognozė galioja nuo 01 metu 00 UTC su 01 metu 09 UTC
Vėjas 5 kt nuo kintamojo kryptimis
Matomumas 10 km arba daugiau
nėra debesų žemiau 1500 m ir nėra kamuolinių lietaus debesų

TAF: LIPR 302300Z 0100/0109 VRB05KT CAVOK

Orai ataskaitas ir orų prognozės (METAR, TAF).

turimą stotys yra geltonos ir raudonos taškus žemėlapyje.

Perkelti pele per norėdami pamatyti stoties vardą.

Tada spustelėkite, norėdami matyti oro stebėjimo ir prognozės.

Norėdami pakeisti žemėlapį: spustelėkite ant žalios mygtukų su juodo kryžiaus žemyn,; žalią mygtuką su brūkšneliu, jei norite nutolinti; arba žalių rodyklių gretimoms žemėlapius.


METAR-TAF: